createdAt,value
2023-02-26T00:01:46.993Z,11.30
2023-02-26T00:04:15.694Z,10.03
2023-02-26T00:07:00.152Z,7.73
2023-02-26T00:09:35.839Z,9.23
2023-02-26T00:12:11.178Z,9.63
2023-02-26T00:14:40.545Z,8.20
2023-02-26T00:17:32.190Z,9.03
2023-02-26T00:20:02.561Z,10.87
2023-02-26T00:22:40.094Z,8.23
2023-02-26T00:25:10.016Z,9.87
2023-02-26T00:27:48.214Z,10.17
2023-02-26T00:30:17.506Z,9.07
2023-02-26T00:32:52.940Z,8.77
2023-02-26T00:35:22.440Z,9.13
2023-02-26T00:38:08.910Z,9.33
2023-02-26T00:40:42.460Z,8.57
2023-02-26T00:43:24.318Z,6.83
2023-02-26T00:46:01.622Z,10.50
2023-02-26T00:48:47.966Z,9.80
2023-02-26T00:51:23.616Z,11.60
2023-02-26T00:54:06.972Z,7.07
2023-02-26T00:56:35.515Z,9.83
2023-02-26T00:59:10.991Z,8.97
2023-02-26T01:01:44.600Z,5.70
2023-02-26T01:04:22.238Z,7.43
2023-02-26T01:06:58.678Z,8.43
2023-02-26T01:09:37.990Z,12.53
2023-02-26T01:12:09.453Z,11.37
2023-02-26T01:14:45.998Z,7.20
2023-02-26T01:17:22.462Z,10.63
2023-02-26T01:20:03.149Z,8.43
2023-02-26T01:22:37.557Z,10.47
2023-02-26T01:25:17.005Z,8.13
2023-02-26T01:27:47.289Z,8.80
2023-02-26T01:30:23.099Z,9.53
2023-02-26T01:32:59.661Z,10.60
2023-02-26T01:35:50.025Z,12.30
2023-02-26T01:38:35.349Z,11.50
2023-02-26T01:41:25.155Z,7.73
2023-02-26T01:44:22.278Z,5.70
2023-02-26T01:47:12.878Z,7.10
2023-02-26T01:49:51.510Z,9.40
2023-02-26T01:53:01.956Z,6.30
2023-02-26T01:55:38.303Z,10.17
2023-02-26T01:58:08.953Z,9.83
2023-02-26T02:00:45.030Z,6.80
2023-02-26T02:03:34.363Z,8.87
2023-02-26T02:06:13.069Z,7.53
2023-02-26T02:08:41.645Z,9.50
2023-02-26T02:11:19.069Z,8.90
2023-02-26T02:14:11.406Z,10.67
2023-02-26T02:16:56.284Z,7.23
2023-02-26T02:20:02.067Z,5.80
2023-02-26T02:23:07.069Z,7.57
2023-02-26T02:26:07.047Z,8.13
2023-02-26T02:28:47.118Z,8.40
2023-02-26T02:31:29.509Z,9.97
2023-02-26T02:34:11.197Z,9.33
2023-02-26T02:36:51.050Z,9.80
2023-02-26T02:39:30.080Z,8.33
2023-02-26T02:42:38.057Z,7.50
2023-02-26T02:45:11.247Z,6.17
2023-02-26T02:47:51.082Z,8.70
2023-02-26T02:50:26.196Z,9.77
2023-02-26T02:53:07.741Z,7.13
2023-02-26T02:55:39.998Z,5.77
2023-02-26T02:58:20.336Z,9.53
2023-02-26T03:00:52.180Z,5.83
2023-02-26T03:03:43.412Z,8.00
2023-02-26T03:06:18.500Z,10.07
2023-02-26T03:08:56.104Z,5.33
2023-02-26T03:11:25.305Z,12.17
2023-02-26T03:14:03.365Z,10.83
2023-02-26T03:16:56.265Z,7.37
2023-02-26T03:19:39.137Z,7.13
2023-02-26T03:22:14.374Z,9.60
2023-02-26T03:24:59.099Z,11.10
2023-02-26T03:27:35.517Z,5.37
2023-02-26T03:30:15.396Z,6.37
2023-02-26T03:32:52.546Z,8.10
2023-02-26T03:35:35.062Z,10.77
2023-02-26T03:38:08.418Z,5.87
2023-02-26T03:40:47.392Z,9.33
2023-02-26T03:43:19.765Z,10.87
2023-02-26T03:45:58.179Z,8.90
2023-02-26T03:48:30.848Z,7.20
2023-02-26T03:51:11.374Z,7.17
2023-02-26T03:53:45.328Z,5.90
2023-02-26T03:56:26.442Z,5.23
2023-02-26T03:58:55.513Z,6.47
2023-02-26T04:01:46.198Z,5.20
2023-02-26T04:04:34.918Z,5.73
2023-02-26T04:07:13.469Z,12.43
2023-02-26T04:09:43.491Z,7.93
2023-02-26T04:12:20.544Z,4.70
2023-02-26T04:14:51.345Z,4.27
2023-02-26T04:17:27.153Z,5.97
2023-02-26T04:19:56.338Z,9.93
2023-02-26T04:22:33.200Z,5.47
2023-02-26T04:25:01.779Z,6.47
2023-02-26T04:27:37.368Z,9.97
2023-02-26T04:30:07.184Z,6.77
2023-02-26T04:32:42.168Z,6.93
2023-02-26T04:35:11.755Z,4.57
2023-02-26T04:37:48.164Z,6.43
2023-02-26T04:40:17.135Z,4.87
2023-02-26T04:42:52.401Z,5.60
2023-02-26T04:45:21.039Z,4.43
2023-02-26T04:47:56.461Z,6.80
2023-02-26T04:50:25.045Z,6.40
2023-02-26T04:53:01.164Z,6.30
2023-02-26T04:55:29.882Z,5.23
2023-02-26T04:58:05.605Z,6.87
2023-02-26T05:00:35.102Z,7.60
2023-02-26T05:03:20.180Z,4.43
2023-02-26T05:05:55.935Z,5.30
2023-02-26T05:08:33.319Z,3.73
2023-02-26T05:11:01.750Z,6.30
2023-02-26T05:13:37.478Z,9.50
2023-02-26T05:16:06.738Z,5.07
2023-02-26T05:18:42.434Z,4.47
2023-02-26T05:21:11.472Z,4.87
2023-02-26T05:23:48.169Z,7.23
2023-02-26T05:26:16.820Z,5.03
2023-02-26T05:28:52.477Z,3.20
2023-02-26T05:31:22.632Z,6.33
2023-02-26T05:33:57.516Z,7.43
2023-02-26T05:36:26.415Z,7.87
2023-02-26T05:39:03.196Z,5.23
2023-02-26T05:41:32.078Z,5.67
2023-02-26T05:44:07.503Z,4.60
2023-02-26T05:46:36.450Z,3.93
2023-02-26T05:49:11.238Z,7.40
2023-02-26T05:51:40.127Z,4.83
2023-02-26T05:54:17.246Z,3.23
2023-02-26T05:56:45.866Z,5.10
2023-02-26T05:59:21.222Z,7.17
2023-02-26T06:01:50.060Z,3.67
2023-02-26T06:04:32.238Z,5.70
2023-02-26T06:07:04.184Z,7.33
2023-02-26T06:09:41.473Z,7.00
2023-02-26T06:12:10.166Z,4.30
2023-02-26T06:14:45.262Z,7.50
2023-02-26T06:17:13.961Z,5.47
2023-02-26T06:19:49.366Z,3.30
2023-02-26T06:22:19.264Z,5.03
2023-02-26T06:24:55.246Z,4.43
2023-02-26T06:27:24.731Z,3.60
2023-02-26T06:30:00.283Z,4.20
2023-02-26T06:32:30.673Z,7.17
2023-02-26T06:35:06.486Z,4.43
2023-02-26T06:37:35.071Z,3.63
2023-02-26T06:40:13.525Z,5.73
2023-02-26T06:42:42.209Z,5.83
2023-02-26T06:45:18.300Z,8.47
2023-02-26T06:47:46.959Z,3.80
2023-02-26T06:50:22.406Z,6.43
2023-02-26T06:52:51.411Z,6.70
2023-02-26T06:55:33.568Z,4.43
2023-02-26T06:58:02.002Z,5.63
2023-02-26T07:00:37.279Z,6.10
2023-02-26T07:03:12.906Z,4.40
2023-02-26T07:05:48.514Z,3.97
2023-02-26T07:08:17.110Z,5.53
2023-02-26T07:10:56.594Z,4.23
2023-02-26T07:13:27.147Z,4.03
2023-02-26T07:16:02.250Z,3.93
2023-02-26T07:18:30.514Z,3.97
2023-02-26T07:21:05.494Z,4.50
2023-02-26T07:23:37.142Z,4.33
2023-02-26T07:26:15.542Z,4.80
2023-02-26T07:28:43.958Z,5.03
2023-02-26T07:31:19.623Z,2.50
2023-02-26T07:33:48.212Z,4.97
2023-02-26T07:36:23.685Z,3.93
2023-02-26T07:38:52.246Z,2.77
2023-02-26T07:41:29.303Z,4.50
2023-02-26T07:43:58.045Z,3.67
2023-02-26T07:46:33.386Z,3.80
2023-02-26T07:49:02.448Z,7.57
2023-02-26T07:51:37.320Z,3.83
2023-02-26T07:54:06.025Z,3.60
2023-02-26T07:56:42.629Z,14.67
2023-02-26T07:59:12.230Z,3.43
2023-02-26T08:01:47.369Z,4.97
2023-02-26T08:04:23.489Z,4.17
2023-02-26T08:07:01.659Z,4.60
2023-02-26T08:09:30.875Z,2.93
2023-02-26T08:12:09.648Z,6.10
2023-02-26T08:14:38.214Z,2.30
2023-02-26T08:17:13.334Z,3.83
2023-02-26T08:19:42.175Z,5.07
2023-02-26T08:22:17.312Z,6.30
2023-02-26T08:24:46.050Z,4.43
2023-02-26T08:27:22.355Z,3.30
2023-02-26T08:29:51.665Z,4.77
2023-02-26T08:32:29.673Z,2.83
2023-02-26T08:34:58.100Z,5.87
2023-02-26T08:37:33.362Z,4.23
2023-02-26T08:40:08.654Z,4.17
2023-02-26T08:42:38.946Z,3.60
2023-02-26T08:45:15.307Z,5.97
2023-02-26T08:47:55.585Z,4.63
2023-02-26T08:50:32.627Z,3.53
2023-02-26T08:53:01.359Z,3.50
2023-02-26T08:55:36.653Z,3.83
2023-02-26T08:58:08.004Z,2.93
2023-02-26T09:00:43.921Z,4.27
2023-02-26T09:03:20.276Z,4.40
2023-02-26T09:06:02.658Z,2.37
2023-02-26T09:08:34.181Z,5.13
2023-02-26T09:11:09.632Z,5.50
2023-02-26T09:13:39.947Z,2.37
2023-02-26T09:16:15.484Z,3.13
2023-02-26T09:18:44.334Z,3.93
2023-02-26T09:21:20.410Z,3.47
2023-02-26T09:23:49.217Z,3.97
2023-02-26T09:26:24.871Z,4.53
2023-02-26T09:28:55.435Z,4.13
2023-02-26T09:31:30.596Z,5.33
2023-02-26T09:33:59.197Z,3.13
2023-02-26T09:36:34.648Z,2.30
2023-02-26T09:39:03.156Z,1.43
2023-02-26T09:41:42.452Z,1.23
2023-02-26T09:44:26.060Z,3.07
2023-02-26T09:47:06.504Z,4.13
2023-02-26T09:49:47.935Z,3.27
2023-02-26T09:52:30.397Z,4.57
2023-02-26T09:55:01.939Z,3.23
2023-02-26T09:57:41.447Z,3.10
2023-02-26T10:00:26.309Z,3.47
2023-02-26T10:03:11.669Z,3.43
2023-02-26T10:05:52.064Z,2.20
2023-02-26T10:08:29.352Z,4.03
2023-02-26T10:11:07.682Z,2.37
2023-02-26T10:13:57.631Z,2.03
2023-02-26T10:16:33.774Z,4.17
2023-02-26T10:19:15.700Z,1.50
2023-02-26T10:21:47.683Z,1.93
2023-02-26T10:24:30.514Z,2.70
2023-02-26T10:27:04.318Z,2.67
2023-02-26T10:29:45.789Z,2.03
2023-02-26T10:32:27.550Z,2.30
2023-02-26T10:35:06.475Z,3.33
2023-02-26T10:37:45.681Z,1.40
2023-02-26T10:40:25.462Z,2.07
2023-02-26T10:42:57.926Z,2.70
2023-02-26T10:45:42.946Z,1.83
2023-02-26T10:48:33.329Z,1.50
2023-02-26T10:51:19.397Z,1.50
2023-02-26T10:53:52.664Z,3.77
2023-02-26T10:56:34.445Z,2.20
2023-02-26T10:59:03.320Z,1.53
2023-02-26T11:01:39.725Z,3.80
2023-02-26T11:04:31.444Z,4.23
2023-02-26T11:07:09.510Z,2.27
2023-02-26T11:09:42.344Z,2.67
2023-02-26T11:12:23.853Z,4.03
2023-02-26T11:14:52.405Z,1.23
2023-02-26T11:17:30.724Z,2.93
2023-02-26T11:20:04.887Z,2.77
2023-02-26T11:22:42.766Z,3.20
2023-02-26T11:25:16.838Z,2.07
2023-02-26T11:27:54.478Z,2.50
2023-02-26T11:30:26.500Z,4.10
2023-02-26T11:33:05.519Z,3.33
2023-02-26T11:35:35.744Z,1.17
2023-02-26T11:38:12.536Z,3.10
2023-02-26T11:40:43.044Z,1.97
2023-02-26T11:43:24.494Z,2.30
2023-02-26T11:45:57.923Z,1.60
2023-02-26T11:48:35.522Z,1.80
2023-02-26T11:51:09.105Z,2.60
2023-02-26T11:53:49.740Z,3.53
2023-02-26T11:56:26.670Z,2.63
2023-02-26T11:59:04.355Z,1.77
2023-02-26T12:01:32.830Z,2.30
2023-02-26T12:04:09.571Z,4.90
2023-02-26T12:06:39.789Z,2.93
2023-02-26T12:09:20.760Z,3.17
2023-02-26T12:12:31.026Z,1.57
2023-02-26T12:15:24.765Z,1.90
2023-02-26T12:18:34.787Z,1.23
2023-02-26T12:21:17.304Z,3.33
2023-02-26T12:24:24.564Z,1.53
2023-02-26T12:27:01.185Z,2.07
2023-02-26T12:29:59.568Z,2.37
2023-02-26T12:32:56.511Z,3.57
2023-02-26T12:36:01.829Z,1.60
2023-02-26T12:38:36.623Z,3.17
2023-02-26T12:41:40.794Z,3.87
2023-02-26T12:44:22.624Z,1.70
2023-02-26T12:47:13.835Z,3.17
2023-02-26T12:50:11.152Z,1.70
2023-02-26T12:53:13.833Z,4.43
2023-02-26T12:55:54.249Z,6.53
2023-02-26T12:58:48.642Z,1.70
2023-02-26T13:01:47.144Z,1.83
2023-02-26T13:04:50.855Z,1.70
2023-02-26T13:07:54.224Z,1.40
2023-02-26T13:10:36.615Z,2.33
2023-02-26T13:13:22.932Z,1.90
2023-02-26T13:16:23.706Z,2.27
2023-02-26T13:19:01.113Z,1.27
2023-02-26T13:21:40.550Z,2.10
2023-02-26T13:24:15.154Z,1.93
2023-02-26T13:26:52.912Z,3.37
2023-02-26T13:29:26.011Z,1.80
2023-02-26T13:32:06.675Z,1.73
2023-02-26T13:34:43.451Z,1.37
2023-02-26T13:37:29.629Z,1.33
2023-02-26T13:40:23.181Z,2.17
2023-02-26T13:43:02.622Z,1.40
2023-02-26T13:45:44.871Z,1.27
2023-02-26T13:48:30.562Z,2.83
2023-02-26T13:51:09.700Z,1.73
2023-02-26T13:54:01.903Z,1.17
2023-02-26T13:57:05.948Z,1.23
2023-02-26T13:59:49.309Z,1.67
2023-02-26T14:03:02.899Z,4.97
2023-02-26T14:05:56.990Z,4.40
2023-02-26T14:09:01.557Z,1.30
2023-02-26T14:11:45.865Z,1.43
2023-02-26T14:14:30.906Z,3.20
2023-02-26T14:17:22.672Z,1.60
2023-02-26T14:20:22.953Z,2.13
2023-02-26T14:23:11.246Z,2.87
2023-02-26T14:25:48.946Z,2.00
2023-02-26T14:28:37.138Z,1.47
2023-02-26T14:31:27.404Z,4.53
2023-02-26T14:34:14.959Z,3.50
2023-02-26T14:36:54.963Z,3.33
2023-02-26T14:39:43.198Z,1.47
2023-02-26T14:42:23.925Z,2.23
2023-02-26T14:44:58.525Z,4.20
2023-02-26T14:47:33.597Z,1.50
2023-02-26T14:50:02.525Z,2.07
2023-02-26T14:52:53.696Z,2.57
2023-02-26T14:55:46.162Z,3.60
2023-02-26T14:58:44.724Z,2.40
2023-02-26T15:01:38.217Z,2.47
2023-02-26T15:04:41.419Z,2.40
2023-02-26T15:07:34.656Z,3.10
2023-02-26T15:10:14.853Z,2.37
2023-02-26T15:13:04.968Z,0.97
2023-02-26T15:15:42.552Z,2.50
2023-02-26T15:18:53.698Z,1.73
2023-02-26T15:21:36.860Z,1.77
2023-02-26T15:24:14.993Z,1.00
2023-02-26T15:26:49.093Z,2.60
2023-02-26T15:29:27.729Z,3.77
2023-02-26T15:32:01.299Z,1.93
2023-02-26T15:34:37.795Z,2.07
2023-02-26T15:37:07.383Z,1.10
2023-02-26T15:39:43.018Z,1.70
2023-02-26T15:42:13.191Z,2.73
2023-02-26T15:44:56.757Z,1.73
2023-02-26T15:47:26.666Z,2.67
2023-02-26T15:50:02.682Z,2.33
2023-02-26T15:52:32.263Z,3.77
2023-02-26T15:55:10.053Z,1.83
2023-02-26T15:57:38.906Z,1.13
2023-02-26T16:00:18.667Z,1.30
2023-02-26T16:02:47.167Z,1.60
2023-02-26T16:05:28.987Z,2.33
2023-02-26T16:07:58.245Z,2.60
2023-02-26T16:10:44.980Z,1.43
2023-02-26T16:13:19.745Z,2.57
2023-02-26T16:15:57.107Z,2.47
2023-02-26T16:18:26.851Z,1.87
2023-02-26T16:21:07.342Z,2.57
2023-02-26T16:23:44.786Z,3.73
2023-02-26T16:26:27.277Z,2.90
2023-02-26T16:29:00.497Z,1.33
2023-02-26T16:31:43.964Z,1.87
2023-02-26T16:34:29.509Z,2.10
2023-02-26T16:37:06.279Z,1.33
2023-02-26T16:39:34.705Z,2.73
2023-02-26T16:42:16.769Z,2.63
2023-02-26T16:44:53.802Z,4.20
2023-02-26T16:47:30.778Z,3.23
2023-02-26T16:50:00.081Z,3.20
2023-02-26T16:52:34.715Z,5.23
2023-02-26T16:55:08.236Z,1.90
2023-02-26T16:57:47.021Z,4.50
2023-02-26T17:00:20.572Z,2.60
2023-02-26T17:02:58.790Z,2.77
2023-02-26T17:05:51.784Z,2.40
2023-02-26T17:08:30.061Z,2.37
2023-02-26T17:11:04.099Z,2.37
2023-02-26T17:13:41.242Z,2.30
2023-02-26T17:16:14.691Z,3.43
2023-02-26T17:18:52.035Z,3.83
2023-02-26T17:21:21.097Z,2.93
2023-02-26T17:23:57.091Z,2.47
2023-02-26T17:26:28.124Z,5.40
2023-02-26T17:29:02.740Z,2.40
2023-02-26T17:31:31.706Z,2.83
2023-02-26T17:34:09.098Z,2.97
2023-02-26T17:36:37.690Z,2.70
2023-02-26T17:39:14.048Z,2.97
2023-02-26T17:41:45.594Z,3.17
2023-02-26T17:44:21.056Z,4.03
2023-02-26T17:46:49.701Z,2.40
2023-02-26T17:49:25.852Z,2.13
2023-02-26T17:51:55.000Z,5.40
2023-02-26T17:54:29.774Z,4.93
2023-02-26T17:56:59.636Z,2.27
2023-02-26T17:59:35.081Z,3.90
2023-02-26T18:02:18.243Z,2.77
2023-02-26T18:04:55.178Z,3.00
2023-02-26T18:07:26.040Z,1.97
2023-02-26T18:10:02.120Z,2.40
2023-02-26T18:12:31.079Z,2.03
2023-02-26T18:15:07.384Z,4.27
2023-02-26T18:17:36.469Z,3.20
2023-02-26T18:20:15.122Z,2.63
2023-02-26T18:22:43.775Z,1.93
2023-02-26T18:25:20.828Z,2.93
2023-02-26T18:27:54.818Z,2.33
2023-02-26T18:30:32.705Z,4.03
2023-02-26T18:33:02.803Z,3.97
2023-02-26T18:35:39.962Z,3.43
2023-02-26T18:38:08.628Z,4.93
2023-02-26T18:40:44.140Z,3.10
2023-02-26T18:43:13.325Z,2.53
2023-02-26T18:45:51.885Z,2.77
2023-02-26T18:48:22.498Z,3.07
2023-02-26T18:50:58.852Z,5.03
2023-02-26T18:53:29.001Z,3.33
2023-02-26T18:56:05.198Z,3.23
2023-02-26T18:58:33.901Z,3.60
2023-02-26T19:01:10.955Z,4.77
2023-02-26T19:03:39.902Z,2.93
2023-02-26T19:06:23.633Z,3.63
2023-02-26T19:08:52.440Z,3.50
2023-02-26T19:11:28.113Z,4.13
2023-02-26T19:13:56.784Z,4.27
2023-02-26T19:16:31.875Z,3.17
2023-02-26T19:19:01.174Z,2.00
2023-02-26T19:21:41.092Z,4.43
2023-02-26T19:24:11.632Z,5.13
2023-02-26T19:26:46.965Z,3.80
2023-02-26T19:29:19.178Z,2.70
2023-02-26T19:31:55.312Z,4.10
2023-02-26T19:34:24.783Z,3.67
2023-02-26T19:37:02.927Z,2.80
2023-02-26T19:39:32.064Z,3.03
2023-02-26T19:42:06.909Z,2.60
2023-02-26T19:44:35.980Z,3.27
2023-02-26T19:47:10.866Z,3.27
2023-02-26T19:49:40.088Z,2.13
2023-02-26T19:52:17.275Z,4.77
2023-02-26T19:54:45.821Z,3.10
2023-02-26T19:57:20.949Z,2.47
2023-02-26T19:59:49.469Z,3.03
2023-02-26T20:02:25.962Z,2.17
2023-02-26T20:05:08.268Z,2.03
2023-02-26T20:07:38.382Z,2.60
2023-02-26T20:10:13.878Z,2.73
2023-02-26T20:12:42.723Z,2.73
2023-02-26T20:15:19.176Z,5.57
2023-02-26T20:17:47.887Z,2.53
2023-02-26T20:20:23.254Z,2.07
2023-02-26T20:22:53.358Z,2.80
2023-02-26T20:25:28.006Z,3.20
2023-02-26T20:27:56.718Z,2.37
2023-02-26T20:30:32.245Z,3.53
2023-02-26T20:33:00.776Z,3.13
2023-02-26T20:35:36.189Z,2.37
2023-02-26T20:38:06.573Z,3.17
2023-02-26T20:40:42.727Z,3.30
2023-02-26T20:43:11.969Z,2.77
2023-02-26T20:45:48.244Z,4.33
2023-02-26T20:48:17.096Z,3.23
2023-02-26T20:50:52.261Z,4.57
2023-02-26T20:53:22.961Z,4.97
2023-02-26T20:55:58.107Z,4.20
2023-02-26T20:58:27.424Z,3.13
2023-02-26T21:01:04.289Z,3.53
2023-02-26T21:03:33.204Z,3.40
2023-02-26T21:06:15.141Z,3.93
2023-02-26T21:08:45.593Z,2.77
2023-02-26T21:11:21.232Z,3.63
2023-02-26T21:13:49.997Z,3.90
2023-02-26T21:16:25.105Z,4.00
2023-02-26T21:18:53.977Z,3.73
2023-02-26T21:21:30.513Z,4.03
2023-02-26T21:24:01.088Z,2.80
2023-02-26T21:26:35.949Z,2.73
2023-02-26T21:29:05.113Z,2.77
2023-02-26T21:31:40.021Z,3.17
2023-02-26T21:34:30.147Z,3.70
2023-02-26T21:37:05.708Z,4.07
2023-02-26T21:39:36.415Z,3.03
2023-02-26T21:42:12.375Z,4.73
2023-02-26T21:44:41.216Z,5.10
2023-02-26T21:47:17.286Z,3.93
2023-02-26T21:49:47.027Z,4.63
2023-02-26T21:52:22.023Z,5.83
2023-02-26T21:54:52.554Z,7.30
2023-02-26T21:57:27.995Z,2.60
2023-02-26T21:59:57.133Z,3.87
2023-02-26T22:02:32.184Z,4.00
2023-02-26T22:05:08.125Z,4.13
2023-02-26T22:07:50.051Z,3.97
2023-02-26T22:10:20.696Z,4.00
2023-02-26T22:12:56.325Z,4.03
2023-02-26T22:15:24.992Z,4.00
2023-02-26T22:17:59.992Z,3.30
2023-02-26T22:20:28.810Z,3.73
2023-02-26T22:23:04.052Z,2.80
2023-02-26T22:25:34.608Z,4.00
2023-02-26T22:28:10.252Z,5.73
2023-02-26T22:30:39.616Z,6.13
2023-02-26T22:33:15.037Z,5.60
2023-02-26T22:35:44.862Z,4.27
2023-02-26T22:38:20.192Z,4.87
2023-02-26T22:40:50.815Z,3.53
2023-02-26T22:43:26.070Z,3.00
2023-02-26T22:45:54.946Z,3.67
2023-02-26T22:48:34.571Z,3.20
2023-02-26T22:51:03.530Z,6.73
2023-02-26T22:53:39.081Z,3.33
2023-02-26T22:56:09.855Z,5.13
2023-02-26T22:58:45.100Z,3.33
2023-02-26T23:01:13.850Z,6.07
2023-02-26T23:03:49.350Z,4.83
2023-02-26T23:06:31.343Z,3.40
2023-02-26T23:09:01.364Z,3.97
2023-02-26T23:11:38.348Z,3.07
2023-02-26T23:14:07.597Z,3.27
2023-02-26T23:16:43.178Z,6.27
2023-02-26T23:19:11.975Z,2.87
2023-02-26T23:21:49.372Z,3.40
2023-02-26T23:24:17.902Z,2.40
2023-02-26T23:26:54.089Z,4.17
2023-02-26T23:29:22.875Z,2.70
2023-02-26T23:31:58.985Z,4.30
2023-02-26T23:34:27.935Z,2.77
2023-02-26T23:37:05.156Z,4.50
2023-02-26T23:39:34.159Z,3.20
2023-02-26T23:42:11.433Z,3.90
2023-02-26T23:44:40.013Z,4.23
2023-02-26T23:47:18.485Z,2.43
2023-02-26T23:49:48.390Z,4.67
2023-02-26T23:52:23.372Z,2.93
2023-02-26T23:54:51.907Z,4.13
2023-02-26T23:57:29.146Z,4.23
2023-02-26T23:59:57.820Z,3.07
